Time;durP1;ratioP1;P1;durP2;ratioP2;P2;SDS_P1;SDS_P2;PMS_P1;PMS_P2;Temp;Humidity;BMP_temperature;BMP_pressure;BME280_temperature;BME280_humidity;BME280_pressure;Samples;Min_cycle;Max_cycle;Signal;HPM_P1;HPM_P2
2022/08/10 00:00:19;;;;;;;2.47;1.70;;;;;;;;;;10523405;28;20055;-55
2022/08/10 00:04:46;;;;;;;3.78;1.83;;;;;;;;;;10526259;28;20320;-60
2022/08/10 00:09:47;;;;;;;4.07;2.00;;;;;;;;;;10535534;28;20296;-55
2022/08/10 00:14:47;;;;;;;2.55;1.80;;;;;;;;;;10531090;28;20028;-57
2022/08/10 00:19:48;;;;;;;5.07;1.90;;;;;;;;;;10537187;28;20025;-56
2022/08/10 00:24:48;;;;;;;2.60;1.92;;;;;;;;;;10537241;28;20376;-54
2022/08/10 00:29:49;;;;;;;2.25;1.50;;;;;;;;;;10535928;28;20024;-55
2022/08/10 00:34:50;;;;;;;1.92;1.60;;;;;;;;;;10530607;28;20058;-55
2022/08/10 00:39:51;;;;;;;3.05;1.60;;;;;;;;;;10535874;28;20301;-54
2022/08/10 00:44:52;;;;;;;1.75;1.65;;;;;;;;;;10520546;28;20031;-56
2022/08/10 00:49:53;;;;;;;2.33;1.70;;;;;;;;;;10523381;28;20028;-56
2022/08/10 00:54:54;;;;;;;1.75;1.60;;;;;;;;;;10508084;28;20115;-61
2022/08/10 00:59:55;;;;;;;1.60;1.50;;;;;;;;;;10521868;28;20073;-55
2022/08/10 01:05:05;;;;;;;1.48;1.38;;;;;;;;;;10531221;28;20445;-55
2022/08/10 01:10:37;;;;;;;2.42;1.63;;;;;;;;;;10519057;28;20039;-56
2022/08/10 01:16:00;;;;;;;2.95;1.55;;;;;;;;;;10531914;28;20035;-56
2022/08/10 01:22:08;;;;;;;4.40;1.50;;;;;;;;;;10522878;28;20031;-56
2022/08/10 01:27:27;;;;;;;2.00;1.80;;;;;;;;;;10486718;28;20083;-55
2022/08/10 01:32:41;;;;;;;2.08;1.70;;;;;;;;;;10532717;28;20028;-56
2022/08/10 01:37:50;;;;;;;2.67;1.70;;;;;;;;;;10520458;28;20032;-56
2022/08/10 01:42:54;;;;;;;3.60;1.90;;;;;;;;;;10506866;28;20073;-56
2022/08/10 01:53:26;;;;;;;1.40;1.30;;;;;;;;;;10520461;28;20028;-55
2022/08/10 01:58:29;;;;;;;1.33;1.23;;;;;;;;;;10521349;28;20054;-56
2022/08/10 02:03:32;;;;;;;2.08;1.40;;;;;;;;;;10530746;28;20078;-57
2022/08/10 02:08:34;;;;;;;1.30;1.20;;;;;;;;;;10504978;28;20040;-56
2022/08/10 02:13:36;;;;;;;2.70;1.85;;;;;;;;;;10521670;28;20217;-56
2022/08/10 02:18:39;;;;;;;2.72;1.80;;;;;;;;;;10518380;28;20043;-55
2022/08/10 02:23:42;;;;;;;4.95;1.80;;;;;;;;;;10523350;28;20123;-56
2022/08/10 02:28:43;;;;;;;1.58;1.45;;;;;;;;;;10532341;28;20025;-55
2022/08/10 02:33:47;;;;;;;1.95;1.23;;;;;;;;;;10512049;28;20034;-56
2022/08/10 02:38:56;;;;;;;1.65;1.40;;;;;;;;;;10530946;28;20447;-56
2022/08/10 02:44:27;;;;;;;1.88;1.40;;;;;;;;;;10530921;28;20356;-55
2022/08/10 02:49:37;;;;;;;1.65;1.55;;;;;;;;;;10515611;28;20051;-56
2022/08/10 02:54:48;;;;;;;3.83;1.70;;;;;;;;;;10517052;28;20032;-56
2022/08/10 02:59:54;;;;;;;1.90;1.42;;;;;;;;;;10529936;28;20043;-56
2022/08/10 03:05:02;;;;;;;1.92;1.50;;;;;;;;;;10514190;22;20049;-56
2022/08/10 03:10:06;;;;;;;1.83;1.65;;;;;;;;;;10463216;28;20025;-59
2022/08/10 03:15:10;;;;;;;1.73;1.30;;;;;;;;;;10471381;28;20472;-59
2022/08/10 03:20:13;;;;;;;3.17;1.65;;;;;;;;;;10489885;28;20028;-59
2022/08/10 03:25:14;;;;;;;1.63;1.52;;;;;;;;;;10471597;28;20031;-55
2022/08/10 03:30:15;;;;;;;3.65;1.48;;;;;;;;;;10472610;28;20048;-55
2022/08/10 03:35:16;;;;;;;2.03;1.30;;;;;;;;;;10479796;28;20444;-54
2022/08/10 03:40:17;;;;;;;2.00;1.52;;;;;;;;;;10478896;28;20028;-54
2022/08/10 03:45:18;;;;;;;1.45;1.30;;;;;;;;;;10496696;28;20028;-54
2022/08/10 03:50:20;;;;;;;3.97;1.38;;;;;;;;;;10478777;28;20079;-57
2022/08/10 03:55:22;;;;;;;2.58;1.45;;;;;;;;;;10478085;28;20499;-56
2022/08/10 04:00:23;;;;;;;1.23;1.13;;;;;;;;;;10478315;28;20033;-53
2022/08/10 04:05:24;;;;;;;1.77;1.30;;;;;;;;;;10495489;28;20284;-54
2022/08/10 04:10:25;;;;;;;2.35;1.30;;;;;;;;;;10477959;28;20591;-53
2022/08/10 04:15:25;;;;;;;1.38;1.27;;;;;;;;;;10495675;28;20104;-55
2022/08/10 04:20:41;;;;;;;2.22;1.08;;;;;;;;;;10494941;28;20392;-56
2022/08/10 04:25:42;;;;;;;1.30;1.25;;;;;;;;;;10478904;28;20044;-55
2022/08/10 04:30:45;;;;;;;2.47;1.40;;;;;;;;;;10476239;28;20377;-57
2022/08/10 04:35:46;;;;;;;2.03;1.50;;;;;;;;;;10495336;28;20081;-52
2022/08/10 04:40:47;;;;;;;2.05;1.13;;;;;;;;;;10476837;28;20032;-55
2022/08/10 04:45:48;;;;;;;1.77;1.40;;;;;;;;;;10493870;28;20363;-52
2022/08/10 04:50:48;;;;;;;1.50;1.40;;;;;;;;;;10493012;28;20033;-55
2022/08/10 04:55:49;;;;;;;1.20;1.10;;;;;;;;;;10492953;28;20395;-56
2022/08/10 05:00:49;;;;;;;1.60;1.20;;;;;;;;;;10493687;28;20031;-53
2022/08/10 05:05:50;;;;;;;1.58;1.33;;;;;;;;;;10493764;28;20049;-54
2022/08/10 05:10:51;;;;;;;1.88;1.42;;;;;;;;;;10492667;28;20204;-54
2022/08/10 05:15:52;;;;;;;2.55;1.50;;;;;;;;;;10493628;28;20164;-55
2022/08/10 05:20:53;;;;;;;4.57;1.63;;;;;;;;;;10492735;28;20175;-56
2022/08/10 05:25:53;;;;;;;2.65;1.30;;;;;;;;;;10493018;28;20035;-55
2022/08/10 05:30:54;;;;;;;1.98;1.30;;;;;;;;;;10492674;28;20021;-55
2022/08/10 05:35:55;;;;;;;1.52;1.30;;;;;;;;;;10491760;28;20040;-56
2022/08/10 05:40:56;;;;;;;3.28;1.50;;;;;;;;;;10460689;28;20106;-54
2022/08/10 05:45:57;;;;;;;4.47;1.55;;;;;;;;;;10477807;28;20475;-58
2022/08/10 05:50:58;;;;;;;2.83;1.70;;;;;;;;;;10489818;28;20036;-50
2022/08/10 05:56:00;;;;;;;4.18;1.80;;;;;;;;;;10490846;28;20483;-52
2022/08/10 06:01:11;;;;;;;2.33;1.40;;;;;;;;;;10488077;28;20145;-53
2022/08/10 06:06:12;;;;;;;3.83;1.90;;;;;;;;;;10485680;28;20036;-55
2022/08/10 06:11:15;;;;;;;3.58;2.40;;;;;;;;;;10471967;28;20037;-56
2022/08/10 06:16:17;;;;;;;3.63;2.33;;;;;;;;;;10472594;28;20020;-53
2022/08/10 06:21:18;;;;;;;4.78;1.83;;;;;;;;;;10490816;28;20021;-54
2022/08/10 06:26:19;;;;;;;5.10;2.10;;;;;;;;;;10473305;28;20078;-54
2022/08/10 06:31:21;;;;;;;3.13;1.83;;;;;;;;;;10490840;28;20025;-54
2022/08/10 06:36:22;;;;;;;4.47;1.77;;;;;;;;;;10490195;28;20032;-54
2022/08/10 06:41:27;;;;;;;7.07;2.00;;;;;;;;;;10472359;28;20031;-54
2022/08/10 06:46:29;;;;;;;4.68;2.00;;;;;;;;;;10458414;28;20428;-54
2022/08/10 06:51:35;;;;;;;3.63;1.83;;;;;;;;;;10483337;28;20024;-54
2022/08/10 06:56:40;;;;;;;6.47;2.17;;;;;;;;;;10445223;28;20025;-54
2022/08/10 07:01:45;;;;;;;3.83;1.80;;;;;;;;;;10484652;28;20514;-55
2022/08/10 07:06:48;;;;;;;3.80;2.20;;;;;;;;;;10494175;28;20408;-54
2022/08/10 07:11:50;;;;;;;5.03;1.80;;;;;;;;;;10480513;28;20435;-54
2022/08/10 07:16:53;;;;;;;6.43;2.22;;;;;;;;;;10480034;28;20486;-58
2022/08/10 07:21:54;;;;;;;7.20;1.60;;;;;;;;;;10479804;28;20357;-56
2022/08/10 07:26:57;;;;;;;7.20;2.00;;;;;;;;;;10473188;28;20028;-55
2022/08/10 07:31:59;;;;;;;5.25;2.47;;;;;;;;;;10479696;28;20164;-56
2022/08/10 07:37:04;;;;;;;7.88;2.03;;;;;;;;;;10479178;28;20032;-53
2022/08/10 07:42:08;;;;;;;5.40;1.90;;;;;;;;;;10488080;28;20021;-55
2022/08/10 07:47:16;;;;;;;4.93;1.70;;;;;;;;;;10478609;28;20024;-56
2022/08/10 07:52:17;;;;;;;5.78;2.00;;;;;;;;;;10473446;28;20499;-56
2022/08/10 07:57:24;;;;;;;5.47;2.30;;;;;;;;;;10496404;28;20094;-54
2022/08/10 08:02:52;;;;;;;3.13;1.67;;;;;;;;;;10478604;28;20020;-55
2022/08/10 08:07:56;;;;;;;3.35;1.50;;;;;;;;;;10495930;28;20051;-56
2022/08/10 08:12:57;;;;;;;1.65;1.40;;;;;;;;;;10495824;28;20353;-55
2022/08/10 08:18:00;;;;;;;3.10;1.63;;;;;;;;;;10495127;28;20024;-57
2022/08/10 08:23:03;;;;;;;2.65;1.63;;;;;;;;;;10477583;28;20025;-52
2022/08/10 08:28:04;;;;;;;6.35;1.70;;;;;;;;;;10495244;28;20223;-54
2022/08/10 08:33:08;;;;;;;2.28;1.50;;;;;;;;;;10494748;28;20222;-53
2022/08/10 08:38:10;;;;;;;4.50;1.67;;;;;;;;;;10477326;28;20106;-56
2022/08/10 08:43:44;;;;;;;3.70;1.75;;;;;;;;;;10495053;28;20112;-52
2022/08/10 08:49:00;;;;;;;4.18;1.55;;;;;;;;;;10477903;28;20025;-56
2022/08/10 08:54:38;;;;;;;3.95;1.65;;;;;;;;;;10494137;28;20031;-55
2022/08/10 09:00:35;;;;;;;5.80;1.40;;;;;;;;;;10493740;28;20032;-54
2022/08/10 09:06:18;;;;;;;2.60;1.60;;;;;;;;;;10491406;28;20041;-54
2022/08/10 09:11:18;;;;;;;5.57;1.23;;;;;;;;;;10478450;28;20058;-55
2022/08/10 09:16:43;;;;;;;4.80;1.93;;;;;;;;;;10493112;28;20025;-56
2022/08/10 09:22:23;;;;;;;1.48;1.35;;;;;;;;;;10476643;28;20515;-56
2022/08/10 09:27:38;;;;;;;2.70;1.42;;;;;;;;;;10492747;28;20033;-56
2022/08/10 09:32:52;;;;;;;2.10;1.50;;;;;;;;;;10492968;28;20032;-55
2022/08/10 09:38:17;;;;;;;2.83;1.70;;;;;;;;;;10475837;28;20102;-57
2022/08/10 09:43:55;;;;;;;4.68;1.58;;;;;;;;;;10480665;28;20399;-55
2022/08/10 09:49:11;;;;;;;4.45;1.40;;;;;;;;;;10490159;28;20052;-55
2022/08/10 09:54:36;;;;;;;2.83;1.10;;;;;;;;;;10491925;28;20425;-58
2022/08/10 10:00:14;;;;;;;2.78;1.70;;;;;;;;;;10471978;28;20456;-56
2022/08/10 10:05:55;;;;;;;2.65;1.35;;;;;;;;;;10481474;28;20516;-54
2022/08/10 10:11:31;;;;;;;2.05;1.20;;;;;;;;;;10468001;28;20491;-55
2022/08/10 10:17:16;;;;;;;1.20;1.10;;;;;;;;;;10491244;28;20042;-55
2022/08/10 10:22:47;;;;;;;2.08;1.30;;;;;;;;;;10473799;28;20420;-52
2022/08/10 10:28:09;;;;;;;1.15;1.08;;;;;;;;;;10490335;28;20037;-57
2022/08/10 10:33:24;;;;;;;2.13;1.17;;;;;;;;;;10490548;28;20021;-56
2022/08/10 10:38:35;;;;;;;4.13;1.23;;;;;;;;;;10485356;28;20044;-57
2022/08/10 10:44:06;;;;;;;2.58;1.25;;;;;;;;;;10455956;28;20021;-53
2022/08/10 10:49:49;;;;;;;1.38;1.05;;;;;;;;;;10476279;28;20463;-55
2022/08/10 10:55:14;;;;;;;4.13;1.48;;;;;;;;;;10490336;28;20034;-54
2022/08/10 11:00:20;;;;;;;3.20;1.38;;;;;;;;;;10464765;28;20033;-56
2022/08/10 11:06:04;;;;;;;2.92;1.58;;;;;;;;;;10455438;28;20047;-54
2022/08/10 11:11:21;;;;;;;3.58;1.25;;;;;;;;;;10435740;28;20264;-53
2022/08/10 11:16:29;;;;;;;;;;;;;;;;;;10464349;28;20039;-52
2022/08/10 11:21:57;;;;;;;1.75;1.20;;;;;;;;;;10470922;28;20375;-52
2022/08/10 11:27:04;;;;;;;1.52;1.10;;;;;;;;;;10472626;28;20028;-58
2022/08/10 11:32:21;;;;;;;0.90;0.90;;;;;;;;;;10486281;28;20037;-59
2022/08/10 11:37:53;;;;;;;1.63;1.37;;;;;;;;;;10472272;28;20248;-53
2022/08/10 11:43:08;;;;;;;1.70;1.25;;;;;;;;;;10464841;28;20438;-58
2022/08/10 11:48:45;;;;;;;1.63;1.40;;;;;;;;;;10484520;28;20020;-55
2022/08/10 11:54:09;;;;;;;1.40;1.17;;;;;;;;;;10452384;28;20044;-58
2022/08/10 12:04:31;;;;;;;1.42;1.33;;;;;;;;;;10457418;28;20044;-59
2022/08/10 12:09:33;;;;;;;1.10;1.00;;;;;;;;;;10458530;28;20033;-57
2022/08/10 12:14:54;;;;;;;1.45;1.05;;;;;;;;;;10453278;28;20024;-58
2022/08/10 12:20:08;;;;;;;1.42;1.30;;;;;;;;;;10474874;28;20041;-58
2022/08/10 12:25:28;;;;;;;3.28;1.25;;;;;;;;;;10466256;28;20035;-52
2022/08/10 12:30:35;;;;;;;2.45;1.25;;;;;;;;;;10455920;28;20117;-54
2022/08/10 12:35:53;;;;;;;1.83;1.40;;;;;;;;;;10491821;28;20036;-57
2022/08/10 12:41:03;;;;;;;5.43;1.70;;;;;;;;;;10477794;28;20089;-55
2022/08/10 12:46:53;;;;;;;7.25;1.45;;;;;;;;;;10493261;28;20431;-55
2022/08/10 12:52:18;;;;;;;5.15;1.42;;;;;;;;;;10476479;28;20064;-57
2022/08/10 12:57:23;;;;;;;1.48;1.25;;;;;;;;;;10489753;28;20423;-57
2022/08/10 13:02:29;;;;;;;2.70;1.50;;;;;;;;;;10446851;28;20037;-58
2022/08/10 13:07:37;;;;;;;2.60;1.25;;;;;;;;;;10467795;28;20142;-58
2022/08/10 13:12:41;;;;;;;;;;;;;;;;;;10466253;28;20031;-58
2022/08/10 13:17:48;;;;;;;8.90;1.88;;;;;;;;;;10492887;28;19920;-58
2022/08/10 13:22:52;;;;;;;4.27;1.30;;;;;;;;;;10472528;28;20020;-58
2022/08/10 13:27:58;;;;;;;4.70;1.60;;;;;;;;;;10475830;28;20024;-57
2022/08/10 13:33:00;;;;;;;4.80;1.30;;;;;;;;;;10475595;28;20043;-57
2022/08/10 13:38:03;;;;;;;1.95;1.40;;;;;;;;;;10475196;28;20048;-58
2022/08/10 13:43:06;;;;;;;2.17;1.27;;;;;;;;;;10475312;28;20044;-57
2022/08/10 13:48:20;;;;;;;3.53;1.30;;;;;;;;;;10490551;28;20078;-58
2022/08/10 13:53:21;;;;;;;3.50;1.30;;;;;;;;;;10474411;28;20040;-58
2022/08/10 13:58:36;;;;;;;3.15;1.10;;;;;;;;;;10471309;28;20092;-58
2022/08/10 14:03:39;;;;;;;2.88;1.27;;;;;;;;;;10474778;28;21521;-57
2022/08/10 14:08:52;;;;;;;3.33;1.20;;;;;;;;;;10491452;28;20132;-58
2022/08/10 14:14:12;;;;;;;2.75;1.10;;;;;;;;;;10490770;28;20032;-58
2022/08/10 14:19:25;;;;;;;3.20;1.30;;;;;;;;;;10462660;28;20176;-58
2022/08/10 14:24:28;;;;;;;3.13;1.15;;;;;;;;;;10473724;28;20021;-58
2022/08/10 14:29:32;;;;;;;1.35;1.10;;;;;;;;;;10491487;28;20031;-57
2022/08/10 14:34:35;;;;;;;0.93;0.90;;;;;;;;;;10473407;28;20056;-57
2022/08/10 14:40:21;;;;;;;1.95;1.10;;;;;;;;;;10459677;28;20464;-57
2022/08/10 14:45:31;;;;;;;1.73;1.10;;;;;;;;;;10457844;28;20115;-58
2022/08/10 14:50:33;;;;;;;1.30;1.20;;;;;;;;;;10486911;28;20089;-58
2022/08/10 14:55:35;;;;;;;1.70;1.27;;;;;;;;;;10471732;28;20056;-57
2022/08/10 15:00:39;;;;;;;1.35;1.25;;;;;;;;;;10489569;28;20028;-57
2022/08/10 15:05:40;;;;;;;1.13;1.00;;;;;;;;;;10468227;28;20108;-57
2022/08/10 15:10:42;;;;;;;2.28;1.30;;;;;;;;;;10477337;28;20032;-58
2022/08/10 15:15:44;;;;;;;1.40;1.30;;;;;;;;;;10489295;28;20036;-56
2022/08/10 15:20:45;;;;;;;2.67;1.20;;;;;;;;;;10463524;28;20434;-57
2022/08/10 15:25:48;;;;;;;5.35;1.45;;;;;;;;;;10486713;28;20040;-57
2022/08/10 15:30:55;;;;;;;5.82;1.60;;;;;;;;;;10478307;28;20051;-58
2022/08/10 15:41:35;;;;;;;5.53;1.50;;;;;;;;;;10468885;28;20364;-57
2022/08/10 15:46:49;;;;;;;4.68;1.42;;;;;;;;;;10487121;28;20480;-58
2022/08/10 15:52:29;;;;;;;3.60;1.15;;;;;;;;;;10456992;28;20081;-57
2022/08/10 15:57:38;;;;;;;1.58;1.35;;;;;;;;;;10477436;28;20032;-57
2022/08/10 16:03:30;;;;;;;1.42;1.10;;;;;;;;;;10493026;28;20056;-57
2022/08/10 16:08:49;;;;;;;2.90;1.30;;;;;;;;;;10484215;28;20051;-58
2022/08/10 16:13:51;;;;;;;2.90;1.20;;;;;;;;;;10478946;28;20108;-57
2022/08/10 16:18:53;;;;;;;1.65;1.20;;;;;;;;;;10465975;28;20047;-57
2022/08/10 16:23:58;;;;;;;3.25;1.30;;;;;;;;;;10481049;28;20033;-57
2022/08/10 16:29:12;;;;;;;5.75;1.20;;;;;;;;;;10477367;28;20052;-57
2022/08/10 16:34:15;;;;;;;2.17;1.15;;;;;;;;;;10477258;28;20099;-58
2022/08/10 16:39:26;;;;;;;2.25;1.10;;;;;;;;;;10493877;28;20114;-58
2022/08/10 16:44:37;;;;;;;2.47;1.02;;;;;;;;;;10461635;28;20383;-59
2022/08/10 16:49:40;;;;;;;1.65;1.05;;;;;;;;;;10493180;28;20060;-57
2022/08/10 16:54:41;;;;;;;2.63;1.13;;;;;;;;;;10472724;28;20036;-57
2022/08/10 16:59:43;;;;;;;2.58;1.50;;;;;;;;;;10476517;28;20062;-57
2022/08/10 17:04:45;;;;;;;3.53;1.40;;;;;;;;;;10473872;28;20040;-57
2022/08/10 17:09:50;;;;;;;2.35;1.13;;;;;;;;;;10473720;28;20098;-58
2022/08/10 17:14:53;;;;;;;1.30;1.20;;;;;;;;;;10493612;28;20032;-58
2022/08/10 17:20:01;;;;;;;0.98;0.90;;;;;;;;;;10490911;28;20028;-57
2022/08/10 17:25:09;;;;;;;3.17;1.13;;;;;;;;;;10475390;28;20024;-56
2022/08/10 17:30:17;;;;;;;2.35;1.20;;;;;;;;;;10467746;28;20421;-57
2022/08/10 17:35:19;;;;;;;;;;;;;;;;;;10492343;28;20020;-57
2022/08/10 17:40:27;;;;;;;1.92;0.95;;;;;;;;;;10490669;28;20003;-58
2022/08/10 17:45:32;;;;;;;2.78;0.90;;;;;;;;;;10488101;28;20082;-57
2022/08/10 17:50:35;;;;;;;2.55;1.00;;;;;;;;;;10466095;28;20043;-58
2022/08/10 17:55:43;;;;;;;1.48;1.00;;;;;;;;;;10464989;28;20373;-57
2022/08/10 18:00:47;;;;;;;;;;;;;;;;;;10483583;28;20033;-58
2022/08/10 18:06:00;;;;;;;0.93;0.88;;;;;;;;;;10473476;28;19916;-57
2022/08/10 18:11:03;;;;;;;0.82;0.82;;;;;;;;;;10489143;28;20040;-58
2022/08/10 18:16:04;;;;;;;1.58;1.02;;;;;;;;;;10473048;28;20408;-57
2022/08/10 18:21:29;;;;;;;1.42;1.00;;;;;;;;;;10489029;28;20028;-58
2022/08/10 18:26:35;;;;;;;1.25;1.13;;;;;;;;;;10472468;28;20039;-58
2022/08/10 18:31:40;;;;;;;1.38;1.00;;;;;;;;;;10490804;28;20056;-57
2022/08/10 18:36:43;;;;;;;3.38;1.00;;;;;;;;;;10487761;28;20029;-57
2022/08/10 18:41:46;;;;;;;3.83;1.05;;;;;;;;;;10458868;28;20115;-58
2022/08/10 18:46:55;;;;;;;0.93;0.80;;;;;;;;;;10490160;28;20380;-57
2022/08/10 18:52:02;;;;;;;0.90;0.88;;;;;;;;;;10487707;28;20032;-57
2022/08/10 18:57:54;;;;;;;2.88;1.00;;;;;;;;;;10462374;28;20077;-58
2022/08/10 19:03:37;;;;;;;1.48;1.10;;;;;;;;;;10489805;28;20480;-57
2022/08/10 19:09:08;;;;;;;2.10;1.10;;;;;;;;;;10421079;28;20025;-57
2022/08/10 19:14:24;;;;;;;1.77;1.20;;;;;;;;;;10425729;28;20033;-58
2022/08/10 19:20:17;;;;;;;2.20;1.42;;;;;;;;;;10399703;28;20041;-58
2022/08/10 19:26:12;;;;;;;2.58;1.30;;;;;;;;;;10411010;28;20386;-57
2022/08/10 19:31:52;;;;;;;1.25;1.15;;;;;;;;;;10424486;28;20030;-58
2022/08/10 19:37:04;;;;;;;2.00;1.15;;;;;;;;;;10397130;28;20052;-57
2022/08/10 19:42:21;;;;;;;1.77;1.17;;;;;;;;;;10445797;28;20075;-57
2022/08/10 19:47:30;;;;;;;;;;;;;;;;;;10412461;28;20036;-56
2022/08/10 19:52:52;;;;;;;3.25;1.73;;;;;;;;;;10418859;28;20419;-54
2022/08/10 19:58:01;;;;;;;3.22;1.95;;;;;;;;;;10419046;28;20434;-55
2022/08/10 20:03:17;;;;;;;4.47;1.95;;;;;;;;;;10421615;28;20025;-58
2022/08/10 20:08:41;;;;;;;3.22;1.90;;;;;;;;;;10399544;28;20113;-58
2022/08/10 20:14:02;;;;;;;2.95;2.13;;;;;;;;;;10388512;28;20053;-57
2022/08/10 20:19:20;;;;;;;6.15;1.73;;;;;;;;;;10399390;28;20029;-57
2022/08/10 20:24:47;;;;;;;4.88;1.98;;;;;;;;;;10376088;28;20084;-57
2022/08/10 20:30:01;;;;;;;14.20;2.80;;;;;;;;;;10428134;28;20037;-58
2022/08/10 20:35:17;;;;;;;12.32;2.53;;;;;;;;;;10384866;28;20038;-55
2022/08/10 20:40:37;;;;;;;5.53;2.53;;;;;;;;;;10428478;28;20035;-59
2022/08/10 20:45:59;;;;;;;11.63;2.47;;;;;;;;;;10393055;28;20036;-57
2022/08/10 20:51:07;;;;;;;5.13;2.30;;;;;;;;;;10399795;28;20022;-56
2022/08/10 20:56:20;;;;;;;5.30;1.98;;;;;;;;;;10406669;28;20025;-55
2022/08/10 21:01:47;;;;;;;3.70;1.90;;;;;;;;;;10406201;28;20029;-56
2022/08/10 21:07:16;;;;;;;6.55;2.30;;;;;;;;;;10432012;28;20053;-56
2022/08/10 21:12:31;;;;;;;6.05;2.10;;;;;;;;;;10449095;28;20032;-56
2022/08/10 21:18:09;;;;;;;4.15;2.15;;;;;;;;;;10449502;28;20025;-56
2022/08/10 21:23:12;;;;;;;3.50;2.22;;;;;;;;;;10447373;28;20043;-56
2022/08/10 22:51:22;;;;;;;2.10;1.25;;;;;;;;;;10432275;28;20036;-56
2022/08/10 23:01:51;;;;;;;3.00;1.63;;;;;;;;;;10447239;28;20025;-54
2022/08/10 23:07:09;;;;;;;6.18;1.45;;;;;;;;;;10448133;28;20056;-54
2022/08/10 23:12:19;;;;;;;2.38;1.58;;;;;;;;;;10447652;28;20036;-57
2022/08/10 23:22:49;;;;;;;3.55;1.60;;;;;;;;;;10447190;28;20045;-57
2022/08/10 23:27:56;;;;;;;1.90;1.70;;;;;;;;;;10446544;28;20029;-55
2022/08/10 23:32:59;;;;;;;6.10;1.67;;;;;;;;;;10447154;28;20037;-56
2022/08/10 23:38:02;;;;;;;3.92;1.65;;;;;;;;;;10447908;28;20040;-57
2022/08/10 23:43:05;;;;;;;3.13;1.75;;;;;;;;;;10448353;28;20428;-57
2022/08/10 23:48:07;;;;;;;2.63;1.58;;;;;;;;;;10448877;28;20029;-56
2022/08/10 23:53:07;;;;;;;2.65;1.60;;;;;;;;;;10456116;28;20025;-57
2022/08/10 23:58:10;;;;;;;3.05;1.75;;;;;;;;;;10454184;28;20029;-57
